AFR35VY LFPG-LPFR
Flight info
| Callsign | AFR35VY |
|---|---|
| Flight time | 2h 21m |
| Altitude | 35000 |
| Route | LGL UT176 TERPO UN872 ERIGA UZ218 FUJTI DCT BAKUP DCT BATAX DCT ELVAR DCT ERTIS Y105 GENRO |
| Aircraft | A321/M-SDE3FGHIRWY/LB1 |
Departure
| Time | 2026-05-06 19:11 |
|---|---|
| Airport | Charles de Gaulle International Airport (LFPG) |
Arrival
| Time | 2026-05-06 21:32 |
|---|---|
| Airport | Faro - Gago Coutinho International Airport (LPFR) |
| Time | Latitude | Longitude | Altitude | Speed | Heading |
|---|---|---|---|---|---|
| 2026-05-06 18:48 | 49.00220 | 2.56919 | 355 ft | 0 kts | 335° |
| 2026-05-06 19:00 | 49.00202 | 2.56931 | 363 ft | 4 kts | 335° |
| 2026-05-06 19:00 | 49.00177 | 2.56948 | 361 ft | 4 kts | 336° |
| 2026-05-06 19:00 | 49.00154 | 2.56964 | 360 ft | 2 kts | 336° |
| 2026-05-06 19:00 | 49.00140 | 2.56972 | 361 ft | 4 kts | 359° |
| 2026-05-06 19:01 | 49.00113 | 2.56950 | 358 ft | 3 kts | 38° |
| 2026-05-06 19:01 | 49.00106 | 2.56942 | 356 ft | 0 kts | 36° |
| 2026-05-06 19:03 | 49.00109 | 2.56946 | 357 ft | 1 kts | 43° |
| 2026-05-06 19:03 | 49.00109 | 2.56962 | 359 ft | 1 kts | 99° |
| 2026-05-06 19:04 | 49.00099 | 2.56977 | 363 ft | 2 kts | 140° |
| 2026-05-06 19:04 | 49.00059 | 2.56985 | 354 ft | 10 kts | 175° |
| 2026-05-06 19:04 | 48.99969 | 2.56997 | 362 ft | 17 kts | 174° |
| 2026-05-06 19:04 | 48.99870 | 2.57060 | 359 ft | 15 kts | 121° |
| 2026-05-06 19:05 | 48.99864 | 2.57215 | 354 ft | 14 kts | 86° |
| 2026-05-06 19:05 | 48.99872 | 2.57362 | 361 ft | 13 kts | 85° |
| 2026-05-06 19:05 | 48.99876 | 2.57457 | 360 ft | 14 kts | 86° |
| 2026-05-06 19:05 | 48.99884 | 2.57605 | 354 ft | 14 kts | 85° |
| 2026-05-06 19:06 | 48.99892 | 2.57759 | 354 ft | 15 kts | 85° |
| 2026-05-06 19:06 | 48.99904 | 2.57976 | 354 ft | 17 kts | 85° |
| 2026-05-06 19:06 | 48.99915 | 2.58178 | 375 ft | 20 kts | 85° |
| 2026-05-06 19:06 | 48.99926 | 2.58389 | 354 ft | 20 kts | 85° |
| 2026-05-06 19:07 | 48.99933 | 2.58528 | 354 ft | 19 kts | 85° |
| 2026-05-06 19:07 | 48.99944 | 2.58724 | 354 ft | 18 kts | 85° |
| 2026-05-06 19:07 | 48.99954 | 2.58908 | 356 ft | 17 kts | 86° |
| 2026-05-06 19:07 | 48.99963 | 2.59082 | 354 ft | 16 kts | 85° |
| 2026-05-06 19:08 | 48.99972 | 2.59241 | 354 ft | 14 kts | 85° |
| 2026-05-06 19:08 | 48.99979 | 2.59386 | 354 ft | 13 kts | 85° |
| 2026-05-06 19:08 | 48.99985 | 2.59519 | 356 ft | 12 kts | 86° |
| 2026-05-06 19:08 | 48.99963 | 2.59626 | 360 ft | 10 kts | 134° |
| 2026-05-06 19:09 | 48.99902 | 2.59660 | 354 ft | 9 kts | 172° |
| 2026-05-06 19:09 | 48.99829 | 2.59671 | 356 ft | 10 kts | 175° |
| 2026-05-06 19:09 | 48.99803 | 2.59615 | 358 ft | 6 kts | 264° |
| 2026-05-06 19:09 | 48.99799 | 2.59553 | 357 ft | 10 kts | 264° |
| 2026-05-06 19:10 | 48.99774 | 2.59085 | 358 ft | 80 kts | 265° |
| 2026-05-06 19:10 | 48.99714 | 2.57933 | 363 ft | 136 kts | 265° |
| 2026-05-06 19:10 | 48.99634 | 2.56264 | 426 ft | 173 kts | 268° |
| 2026-05-06 19:10 | 48.99532 | 2.54397 | 940 ft | 180 kts | 268° |
| 2026-05-06 19:11 | 48.99421 | 2.52474 | 1587 ft | 183 kts | 267° |
| 2026-05-06 19:11 | 48.99310 | 2.50559 | 2222 ft | 180 kts | 269° |
| 2026-05-06 19:11 | 48.99203 | 2.48631 | 2657 ft | 190 kts | 268° |
| 2026-05-06 19:11 | 48.99101 | 2.46515 | 2856 ft | 210 kts | 269° |
| 2026-05-06 19:12 | 48.99004 | 2.44213 | 3111 ft | 227 kts | 269° |
| 2026-05-06 19:12 | 48.98890 | 2.41712 | 3373 ft | 248 kts | 268° |
| 2026-05-06 19:12 | 48.98737 | 2.39025 | 3950 ft | 259 kts | 266° |
| 2026-05-06 19:12 | 48.98572 | 2.36275 | 4689 ft | 264 kts | 266° |
| 2026-05-06 19:13 | 48.98403 | 2.33465 | 4957 ft | 267 kts | 266° |
| 2026-05-06 19:13 | 48.98235 | 2.30641 | 5315 ft | 270 kts | 266° |
| 2026-05-06 19:13 | 48.98065 | 2.27792 | 6163 ft | 271 kts | 265° |
| 2026-05-06 19:13 | 48.97897 | 2.24924 | 6906 ft | 274 kts | 265° |
| 2026-05-06 19:14 | 48.97730 | 2.22029 | 7624 ft | 277 kts | 265° |
| 2026-05-06 19:14 | 48.97562 | 2.19098 | 8334 ft | 279 kts | 267° |
| 2026-05-06 19:14 | 48.97393 | 2.16143 | 9057 ft | 282 kts | 266° |
| 2026-05-06 19:14 | 48.97220 | 2.13153 | 9774 ft | 285 kts | 267° |
| 2026-05-06 19:15 | 48.97045 | 2.10119 | 10229 ft | 296 kts | 266° |
| 2026-05-06 19:15 | 48.96863 | 2.06878 | 10360 ft | 318 kts | 266° |
| 2026-05-06 19:15 | 48.96669 | 2.03435 | 10585 ft | 334 kts | 266° |
| 2026-05-06 19:15 | 48.96465 | 1.99881 | 11089 ft | 340 kts | 266° |
| 2026-05-06 19:16 | 48.96256 | 1.96280 | 11691 ft | 343 kts | 266° |
| 2026-05-06 19:16 | 48.96041 | 1.92648 | 12295 ft | 347 kts | 266° |
| 2026-05-06 19:16 | 48.95821 | 1.88981 | 12909 ft | 350 kts | 265° |
| 2026-05-06 19:16 | 48.95597 | 1.85277 | 13513 ft | 353 kts | 266° |
| 2026-05-06 19:17 | 48.95371 | 1.81542 | 14081 ft | 357 kts | 266° |
| 2026-05-06 19:17 | 48.95145 | 1.77768 | 14647 ft | 359 kts | 266° |
| 2026-05-06 19:17 | 48.94917 | 1.73976 | 15226 ft | 360 kts | 266° |
| 2026-05-06 19:17 | 48.94683 | 1.70174 | 15776 ft | 363 kts | 266° |
| 2026-05-06 19:18 | 48.94445 | 1.66339 | 16309 ft | 365 kts | 266° |
| 2026-05-06 19:18 | 48.94206 | 1.62483 | 16836 ft | 368 kts | 266° |
| 2026-05-06 19:18 | 48.93963 | 1.58596 | 17351 ft | 370 kts | 266° |
| 2026-05-06 19:18 | 48.93720 | 1.54692 | 17872 ft | 372 kts | 266° |
| 2026-05-06 19:19 | 48.93476 | 1.50758 | 18360 ft | 375 kts | 266° |
| 2026-05-06 19:19 | 48.93226 | 1.46800 | 18791 ft | 377 kts | 266° |
| 2026-05-06 19:19 | 48.92972 | 1.42813 | 19220 ft | 380 kts | 265° |
| 2026-05-06 19:19 | 48.92716 | 1.38803 | 19632 ft | 382 kts | 265° |
| 2026-05-06 19:20 | 48.92459 | 1.34773 | 20033 ft | 384 kts | 265° |
| 2026-05-06 19:20 | 48.92198 | 1.30716 | 20413 ft | 386 kts | 265° |
| 2026-05-06 19:20 | 48.91936 | 1.26647 | 20817 ft | 388 kts | 265° |
| 2026-05-06 19:20 | 48.91667 | 1.22560 | 21206 ft | 390 kts | 265° |
| 2026-05-06 19:21 | 48.91395 | 1.18471 | 21585 ft | 392 kts | 265° |
| 2026-05-06 19:21 | 48.91121 | 1.14335 | 21969 ft | 394 kts | 265° |
| 2026-05-06 19:21 | 48.90846 | 1.10185 | 22354 ft | 395 kts | 265° |
| 2026-05-06 19:21 | 48.90569 | 1.06019 | 22717 ft | 398 kts | 265° |
| 2026-05-06 19:22 | 48.90289 | 1.01820 | 23068 ft | 400 kts | 265° |
| 2026-05-06 19:22 | 48.90007 | 0.97603 | 23452 ft | 402 kts | 265° |
| 2026-05-06 19:22 | 48.89721 | 0.93372 | 23810 ft | 404 kts | 265° |
| 2026-05-06 19:22 | 48.89429 | 0.89114 | 24122 ft | 406 kts | 265° |
| 2026-05-06 19:23 | 48.89130 | 0.84845 | 24449 ft | 408 kts | 263° |
| 2026-05-06 19:23 | 48.88532 | 0.80631 | 24794 ft | 409 kts | 253° |
| 2026-05-06 19:23 | 48.87462 | 0.76613 | 25119 ft | 411 kts | 243° |
| 2026-05-06 19:23 | 48.86099 | 0.72786 | 25435 ft | 414 kts | 242° |
| 2026-05-06 19:24 | 48.84725 | 0.68936 | 25753 ft | 416 kts | 242° |
| 2026-05-06 19:24 | 48.83351 | 0.65072 | 26062 ft | 417 kts | 243° |
| 2026-05-06 19:24 | 48.81970 | 0.61184 | 26375 ft | 419 kts | 242° |
| 2026-05-06 19:24 | 48.80582 | 0.57281 | 26662 ft | 421 kts | 242° |
| 2026-05-06 19:25 | 48.79123 | 0.53421 | 26946 ft | 424 kts | 237° |
| 2026-05-06 19:25 | 48.77314 | 0.49883 | 27233 ft | 426 kts | 230° |
| 2026-05-06 19:25 | 48.75383 | 0.46458 | 27524 ft | 428 kts | 231° |
| 2026-05-06 19:25 | 48.73444 | 0.43019 | 27820 ft | 430 kts | 230° |
| 2026-05-06 19:26 | 48.71502 | 0.39569 | 28170 ft | 430 kts | 230° |
| 2026-05-06 19:26 | 48.69556 | 0.36115 | 28481 ft | 432 kts | 230° |
| 2026-05-06 19:26 | 48.67602 | 0.32647 | 28773 ft | 433 kts | 230° |
| 2026-05-06 19:26 | 48.65641 | 0.29171 | 29057 ft | 435 kts | 230° |
| 2026-05-06 19:27 | 48.63671 | 0.25682 | 29310 ft | 437 kts | 230° |
| 2026-05-06 19:27 | 48.61695 | 0.22188 | 29555 ft | 439 kts | 230° |
| 2026-05-06 19:27 | 48.59705 | 0.18675 | 29825 ft | 441 kts | 230° |
| 2026-05-06 19:27 | 48.57712 | 0.15160 | 30048 ft | 442 kts | 230° |
| 2026-05-06 19:28 | 48.55712 | 0.11621 | 30253 ft | 444 kts | 231° |
| 2026-05-06 19:28 | 48.53709 | 0.08061 | 30427 ft | 445 kts | 231° |
| 2026-05-06 19:28 | 48.51703 | 0.04490 | 30618 ft | 447 kts | 231° |
| 2026-05-06 19:28 | 48.49688 | 0.00904 | 30810 ft | 448 kts | 231° |
| 2026-05-06 19:29 | 48.47673 | -0.02672 | 31047 ft | 448 kts | 231° |
| 2026-05-06 19:29 | 48.45653 | -0.06245 | 31291 ft | 447 kts | 231° |
| 2026-05-06 19:29 | 48.43633 | -0.09808 | 31530 ft | 447 kts | 231° |
| 2026-05-06 19:29 | 48.41610 | -0.13374 | 31748 ft | 448 kts | 231° |
| 2026-05-06 19:30 | 48.39587 | -0.16940 | 31992 ft | 448 kts | 231° |
| 2026-05-06 19:30 | 48.37563 | -0.20500 | 32223 ft | 448 kts | 231° |
| 2026-05-06 19:30 | 48.35533 | -0.24063 | 32459 ft | 448 kts | 231° |
| 2026-05-06 19:30 | 48.33503 | -0.27613 | 32689 ft | 448 kts | 231° |
| 2026-05-06 19:31 | 48.31460 | -0.31156 | 32915 ft | 449 kts | 230° |
| 2026-05-06 19:31 | 48.29409 | -0.34693 | 33151 ft | 449 kts | 230° |
| 2026-05-06 19:31 | 48.25301 | -0.41750 | 33628 ft | 449 kts | 230° |
| 2026-05-06 19:32 | 48.23248 | -0.45270 | 33852 ft | 449 kts | 230° |
| 2026-05-06 19:32 | 48.21190 | -0.48795 | 34045 ft | 449 kts | 230° |
| 2026-05-06 19:32 | 48.19161 | -0.52270 | 34234 ft | 449 kts | 230° |
| 2026-05-06 19:32 | 48.17106 | -0.55788 | 34424 ft | 448 kts | 230° |
| 2026-05-06 19:33 | 48.15051 | -0.59299 | 34614 ft | 448 kts | 230° |
| 2026-05-06 19:33 | 48.12995 | -0.62807 | 34794 ft | 448 kts | 230° |
| 2026-05-06 19:33 | 48.10911 | -0.66354 | 34937 ft | 448 kts | 230° |
| 2026-05-06 19:33 | 48.08862 | -0.69836 | 34975 ft | 444 kts | 230° |
| 2026-05-06 19:34 | 48.04825 | -0.76693 | 34975 ft | 441 kts | 230° |
| 2026-05-06 19:34 | 48.00770 | -0.83570 | 34973 ft | 441 kts | 230° |
| 2026-05-06 19:35 | 47.96716 | -0.90426 | 34981 ft | 440 kts | 230° |
| 2026-05-06 19:35 | 47.92658 | -0.97276 | 35000 ft | 440 kts | 230° |
| 2026-05-06 19:36 | 47.88596 | -1.04103 | 35003 ft | 440 kts | 230° |
| 2026-05-06 19:36 | 47.84524 | -1.10927 | 34994 ft | 440 kts | 230° |
| 2026-05-06 19:37 | 47.80457 | -1.17730 | 35001 ft | 440 kts | 230° |
| 2026-05-06 19:37 | 47.77071 | -1.23385 | 34993 ft | 440 kts | 230° |
| 2026-05-06 19:38 | 47.72303 | -1.31310 | 34996 ft | 440 kts | 230° |
| 2026-05-06 19:38 | 47.68226 | -1.38075 | 35007 ft | 439 kts | 230° |
| 2026-05-06 19:39 | 47.64151 | -1.44828 | 35009 ft | 439 kts | 230° |
| 2026-05-06 19:39 | 47.60068 | -1.51580 | 35005 ft | 439 kts | 230° |
| 2026-05-06 19:40 | 47.56000 | -1.58312 | 34985 ft | 439 kts | 230° |
| 2026-05-06 19:40 | 47.51920 | -1.65042 | 34987 ft | 439 kts | 230° |
| 2026-05-06 19:41 | 47.47835 | -1.71747 | 34999 ft | 439 kts | 230° |
| 2026-05-06 19:41 | 47.43746 | -1.78437 | 35002 ft | 438 kts | 229° |
| 2026-05-06 19:42 | 47.39661 | -1.85106 | 35002 ft | 437 kts | 229° |
| 2026-05-06 19:42 | 47.35523 | -1.91680 | 35006 ft | 438 kts | 224° |
| 2026-05-06 19:43 | 47.30511 | -1.96806 | 35002 ft | 440 kts | 213° |
| 2026-05-06 19:43 | 47.25265 | -2.01483 | 34998 ft | 440 kts | 213° |
| 2026-05-06 19:44 | 47.20064 | -2.06133 | 34997 ft | 441 kts | 213° |
| 2026-05-06 19:44 | 47.14797 | -2.10839 | 35000 ft | 440 kts | 213° |
| 2026-05-06 19:45 | 47.09598 | -2.15470 | 34998 ft | 440 kts | 213° |
| 2026-05-06 19:45 | 47.04364 | -2.20108 | 34999 ft | 439 kts | 213° |
| 2026-05-06 19:46 | 46.99132 | -2.24731 | 35002 ft | 439 kts | 213° |
| 2026-05-06 19:46 | 46.93900 | -2.29342 | 35007 ft | 439 kts | 213° |
| 2026-05-06 19:47 | 46.88670 | -2.33949 | 35000 ft | 439 kts | 213° |
| 2026-05-06 19:47 | 46.83438 | -2.38552 | 35002 ft | 439 kts | 213° |
| 2026-05-06 19:48 | 46.79051 | -2.42408 | 35001 ft | 439 kts | 213° |
| 2026-05-06 19:48 | 46.72972 | -2.47735 | 35008 ft | 438 kts | 212° |
| 2026-05-06 19:49 | 46.67748 | -2.52304 | 35018 ft | 438 kts | 212° |
| 2026-05-06 19:49 | 46.62527 | -2.56850 | 35022 ft | 437 kts | 212° |
| 2026-05-06 19:50 | 46.58181 | -2.60619 | 35025 ft | 437 kts | 212° |
| 2026-05-06 19:50 | 46.52969 | -2.65149 | 35020 ft | 437 kts | 212° |
| 2026-05-06 19:51 | 46.47746 | -2.69679 | 35014 ft | 437 kts | 212° |
| 2026-05-06 19:51 | 46.42523 | -2.74195 | 35023 ft | 437 kts | 212° |
| 2026-05-06 19:52 | 46.37295 | -2.78700 | 35022 ft | 437 kts | 212° |
| 2026-05-06 19:52 | 46.32027 | -2.83220 | 35022 ft | 437 kts | 212° |
| 2026-05-06 19:53 | 46.26839 | -2.87671 | 35030 ft | 436 kts | 212° |
| 2026-05-06 19:53 | 46.21642 | -2.92175 | 35030 ft | 435 kts | 213° |
| 2026-05-06 19:54 | 46.16465 | -2.96708 | 35030 ft | 435 kts | 213° |
| 2026-05-06 19:54 | 46.11292 | -3.01216 | 35021 ft | 434 kts | 213° |
| 2026-05-06 19:55 | 46.06116 | -3.05707 | 35019 ft | 434 kts | 212° |
| 2026-05-06 19:55 | 46.00927 | -3.10178 | 35023 ft | 435 kts | 212° |
| 2026-05-06 19:56 | 45.95740 | -3.14639 | 35028 ft | 435 kts | 212° |
| 2026-05-06 19:56 | 45.90553 | -3.19105 | 35032 ft | 434 kts | 212° |
| 2026-05-06 19:57 | 45.85373 | -3.23569 | 35040 ft | 434 kts | 212° |
| 2026-05-06 19:57 | 45.80198 | -3.28018 | 35040 ft | 434 kts | 212° |
| 2026-05-06 19:58 | 45.75016 | -3.32442 | 35039 ft | 433 kts | 212° |
| 2026-05-06 19:58 | 45.69840 | -3.36857 | 35030 ft | 433 kts | 212° |
| 2026-05-06 19:59 | 45.64664 | -3.41265 | 35032 ft | 433 kts | 212° |
| 2026-05-06 19:59 | 45.59491 | -3.45670 | 35035 ft | 433 kts | 212° |
| 2026-05-06 20:00 | 45.54315 | -3.50055 | 35036 ft | 433 kts | 212° |
| 2026-05-06 20:00 | 45.49136 | -3.54421 | 35037 ft | 432 kts | 212° |
| 2026-05-06 20:01 | 45.43969 | -3.58788 | 35044 ft | 432 kts | 212° |
| 2026-05-06 20:01 | 45.38803 | -3.63140 | 35044 ft | 431 kts | 212° |
| 2026-05-06 20:02 | 45.33637 | -3.67478 | 35042 ft | 431 kts | 212° |
| 2026-05-06 20:02 | 45.28481 | -3.71812 | 35037 ft | 431 kts | 212° |
| 2026-05-06 20:03 | 45.23324 | -3.76134 | 35038 ft | 430 kts | 212° |
| 2026-05-06 20:03 | 45.18169 | -3.80442 | 35037 ft | 430 kts | 212° |
| 2026-05-06 20:04 | 45.13045 | -3.84709 | 35038 ft | 430 kts | 212° |
| 2026-05-06 20:04 | 45.07884 | -3.88993 | 35037 ft | 429 kts | 212° |
| 2026-05-06 20:05 | 45.02737 | -3.93267 | 35041 ft | 429 kts | 212° |
| 2026-05-06 20:05 | 44.97589 | -3.97531 | 35041 ft | 428 kts | 212° |
| 2026-05-06 20:06 | 44.92445 | -4.01780 | 35039 ft | 428 kts | 212° |
| 2026-05-06 20:06 | 44.87302 | -4.06014 | 35036 ft | 428 kts | 212° |
| 2026-05-06 20:07 | 44.82161 | -4.10249 | 35037 ft | 428 kts | 212° |
| 2026-05-06 20:07 | 44.77017 | -4.14473 | 35038 ft | 428 kts | 212° |
| 2026-05-06 20:08 | 44.71875 | -4.18677 | 35037 ft | 428 kts | 212° |
| 2026-05-06 20:08 | 44.66730 | -4.22891 | 35037 ft | 428 kts | 212° |
| 2026-05-06 20:09 | 44.61589 | -4.27092 | 35037 ft | 428 kts | 212° |
| 2026-05-06 20:09 | 44.56448 | -4.31292 | 35036 ft | 428 kts | 212° |
| 2026-05-06 20:10 | 44.51301 | -4.35469 | 35027 ft | 428 kts | 211° |
| 2026-05-06 20:10 | 44.46150 | -4.39641 | 35029 ft | 428 kts | 211° |
| 2026-05-06 20:11 | 44.41000 | -4.43811 | 35029 ft | 428 kts | 211° |
| 2026-05-06 20:11 | 44.35892 | -4.48067 | 35028 ft | 427 kts | 213° |
| 2026-05-06 20:12 | 44.30828 | -4.52402 | 35028 ft | 427 kts | 213° |
| 2026-05-06 20:12 | 44.25761 | -4.56727 | 35029 ft | 427 kts | 213° |
| 2026-05-06 20:13 | 44.20675 | -4.61022 | 35031 ft | 427 kts | 212° |
| 2026-05-06 20:13 | 44.15590 | -4.65292 | 35032 ft | 427 kts | 212° |
| 2026-05-06 20:14 | 44.10508 | -4.69554 | 35023 ft | 426 kts | 213° |
| 2026-05-06 20:14 | 44.05429 | -4.73816 | 35026 ft | 426 kts | 212° |
| 2026-05-06 20:15 | 44.00350 | -4.78065 | 35028 ft | 426 kts | 212° |
| 2026-05-06 20:15 | 43.95267 | -4.82304 | 35029 ft | 426 kts | 212° |
| 2026-05-06 20:16 | 43.90190 | -4.86540 | 35023 ft | 426 kts | 212° |
| 2026-05-06 20:16 | 43.85104 | -4.90767 | 35026 ft | 426 kts | 212° |
| 2026-05-06 20:17 | 43.80024 | -4.94981 | 35027 ft | 426 kts | 212° |
| 2026-05-06 20:17 | 43.74941 | -4.99185 | 35030 ft | 425 kts | 212° |
| 2026-05-06 20:18 | 43.69862 | -5.03381 | 35029 ft | 425 kts | 212° |
| 2026-05-06 20:18 | 43.64788 | -5.07562 | 35032 ft | 425 kts | 212° |
| 2026-05-06 20:19 | 43.59718 | -5.11742 | 35034 ft | 424 kts | 212° |
| 2026-05-06 20:19 | 43.54650 | -5.15912 | 35035 ft | 424 kts | 212° |
| 2026-05-06 20:20 | 43.49581 | -5.20059 | 35026 ft | 424 kts | 212° |
| 2026-05-06 20:20 | 43.44544 | -5.24174 | 35030 ft | 424 kts | 212° |
| 2026-05-06 20:21 | 43.39477 | -5.28309 | 35033 ft | 424 kts | 212° |
| 2026-05-06 20:21 | 43.34411 | -5.32448 | 35032 ft | 423 kts | 212° |
| 2026-05-06 20:22 | 43.29349 | -5.36572 | 35029 ft | 423 kts | 212° |
| 2026-05-06 20:22 | 43.24290 | -5.40685 | 35039 ft | 422 kts | 212° |
| 2026-05-06 20:23 | 43.19237 | -5.44781 | 35036 ft | 422 kts | 212° |
| 2026-05-06 20:23 | 43.14178 | -5.48861 | 35038 ft | 421 kts | 212° |
| 2026-05-06 20:24 | 43.09132 | -5.52933 | 35033 ft | 421 kts | 212° |
| 2026-05-06 20:24 | 43.04086 | -5.57001 | 35025 ft | 421 kts | 212° |
| 2026-05-06 20:25 | 42.99041 | -5.61060 | 35023 ft | 420 kts | 212° |
| 2026-05-06 20:25 | 42.94001 | -5.65102 | 35015 ft | 420 kts | 212° |
| 2026-05-06 20:26 | 42.88957 | -5.69137 | 34997 ft | 420 kts | 212° |
| 2026-05-06 20:26 | 42.83914 | -5.73162 | 34981 ft | 420 kts | 212° |
| 2026-05-06 20:27 | 42.78881 | -5.77177 | 34985 ft | 419 kts | 212° |
| 2026-05-06 20:27 | 42.73854 | -5.81190 | 34967 ft | 419 kts | 212° |
| 2026-05-06 20:28 | 42.68861 | -5.85157 | 34963 ft | 418 kts | 211° |
| 2026-05-06 20:28 | 42.63832 | -5.89141 | 34957 ft | 418 kts | 212° |
| 2026-05-06 20:29 | 42.58811 | -5.93123 | 34970 ft | 418 kts | 212° |
| 2026-05-06 20:29 | 42.53781 | -5.97095 | 34963 ft | 418 kts | 211° |
| 2026-05-06 20:30 | 42.46245 | -6.03033 | 34959 ft | 418 kts | 211° |
| 2026-05-06 20:31 | 42.41217 | -6.06990 | 34955 ft | 417 kts | 211° |
| 2026-05-06 20:31 | 42.36197 | -6.10930 | 34962 ft | 417 kts | 211° |
| 2026-05-06 20:32 | 42.31177 | -6.14860 | 34957 ft | 417 kts | 211° |
| 2026-05-06 20:32 | 42.26162 | -6.18787 | 34957 ft | 416 kts | 211° |
| 2026-05-06 20:33 | 42.21151 | -6.22704 | 34954 ft | 416 kts | 211° |
| 2026-05-06 20:33 | 42.16147 | -6.26606 | 34956 ft | 415 kts | 211° |
| 2026-05-06 20:34 | 42.11990 | -6.29843 | 34959 ft | 415 kts | 211° |
| 2026-05-06 20:34 | 42.06991 | -6.33725 | 34958 ft | 415 kts | 211° |
| 2026-05-06 20:35 | 42.01991 | -6.37595 | 34935 ft | 415 kts | 211° |
| 2026-05-06 20:35 | 41.96995 | -6.41456 | 34948 ft | 414 kts | 211° |
| 2026-05-06 20:36 | 41.92005 | -6.45319 | 34944 ft | 414 kts | 211° |
| 2026-05-06 20:36 | 41.87015 | -6.49165 | 34955 ft | 413 kts | 210° |
| 2026-05-06 20:36 | 41.84377 | -6.50690 | 34939 ft | 415 kts | 197° |
| 2026-05-06 20:37 | 41.81566 | -6.51610 | 34932 ft | 416 kts | 195° |
| 2026-05-06 20:37 | 41.75928 | -6.53358 | 34910 ft | 417 kts | 195° |
| 2026-05-06 20:38 | 41.70250 | -6.55016 | 34924 ft | 417 kts | 194° |
| 2026-05-06 20:38 | 41.64580 | -6.56596 | 34921 ft | 416 kts | 194° |
| 2026-05-06 20:39 | 41.58917 | -6.58156 | 34925 ft | 416 kts | 194° |
| 2026-05-06 20:39 | 41.53258 | -6.59738 | 34922 ft | 415 kts | 194° |
| 2026-05-06 20:40 | 41.47609 | -6.61331 | 34919 ft | 415 kts | 194° |
| 2026-05-06 20:40 | 41.41958 | -6.62915 | 34916 ft | 415 kts | 194° |
| 2026-05-06 20:41 | 41.36304 | -6.64494 | 34901 ft | 415 kts | 194° |
| 2026-05-06 20:41 | 41.30660 | -6.66061 | 34904 ft | 415 kts | 195° |
| 2026-05-06 20:42 | 41.25010 | -6.67626 | 34911 ft | 414 kts | 195° |
| 2026-05-06 20:42 | 41.19365 | -6.69189 | 34912 ft | 414 kts | 195° |
| 2026-05-06 20:43 | 41.13723 | -6.70751 | 34901 ft | 414 kts | 195° |
| 2026-05-06 20:43 | 41.08086 | -6.72318 | 34907 ft | 414 kts | 195° |
| 2026-05-06 20:44 | 41.02487 | -6.73876 | 34913 ft | 413 kts | 195° |
| 2026-05-06 20:44 | 40.96820 | -6.75439 | 34915 ft | 413 kts | 195° |
| 2026-05-06 20:45 | 40.91229 | -6.76973 | 34901 ft | 413 kts | 195° |
| 2026-05-06 20:45 | 40.85602 | -6.78516 | 34909 ft | 413 kts | 195° |
| 2026-05-06 20:46 | 40.79998 | -6.80055 | 34910 ft | 405 kts | 195° |
| 2026-05-06 20:46 | 40.74576 | -6.81528 | 34910 ft | 394 kts | 195° |
| 2026-05-06 20:47 | 40.69212 | -6.82998 | 34910 ft | 393 kts | 195° |
| 2026-05-06 20:47 | 40.63862 | -6.84460 | 34927 ft | 393 kts | 195° |
| 2026-05-06 20:48 | 40.58480 | -6.85924 | 34913 ft | 392 kts | 195° |
| 2026-05-06 20:48 | 40.53144 | -6.87378 | 34916 ft | 392 kts | 195° |
| 2026-05-06 20:49 | 40.47803 | -6.88822 | 34917 ft | 392 kts | 195° |
| 2026-05-06 20:49 | 40.42463 | -6.90278 | 34917 ft | 392 kts | 195° |
| 2026-05-06 20:50 | 40.37122 | -6.91728 | 34914 ft | 392 kts | 195° |
| 2026-05-06 20:50 | 40.31786 | -6.93165 | 34912 ft | 392 kts | 195° |
| 2026-05-06 20:51 | 40.26446 | -6.94600 | 34886 ft | 391 kts | 195° |
| 2026-05-06 20:51 | 40.21112 | -6.96032 | 34889 ft | 391 kts | 195° |
| 2026-05-06 20:52 | 40.15779 | -6.97468 | 34890 ft | 391 kts | 195° |
| 2026-05-06 20:52 | 40.10449 | -6.98901 | 34892 ft | 391 kts | 195° |
| 2026-05-06 20:53 | 40.05153 | -7.00323 | 34884 ft | 391 kts | 195° |
| 2026-05-06 20:53 | 39.99824 | -7.01746 | 34879 ft | 391 kts | 195° |
| 2026-05-06 20:54 | 39.94493 | -7.03168 | 34877 ft | 391 kts | 195° |
| 2026-05-06 20:54 | 39.89157 | -7.04594 | 34879 ft | 391 kts | 195° |
| 2026-05-06 20:55 | 39.83827 | -7.06013 | 34878 ft | 391 kts | 195° |
| 2026-05-06 20:55 | 39.78492 | -7.07433 | 34859 ft | 391 kts | 195° |
| 2026-05-06 20:56 | 39.73155 | -7.08852 | 34872 ft | 392 kts | 195° |
| 2026-05-06 20:56 | 39.67812 | -7.10267 | 34869 ft | 392 kts | 195° |
| 2026-05-06 20:57 | 39.62460 | -7.11681 | 34873 ft | 392 kts | 195° |
| 2026-05-06 20:57 | 39.57105 | -7.13086 | 34865 ft | 393 kts | 195° |
| 2026-05-06 20:58 | 39.51755 | -7.14503 | 34877 ft | 392 kts | 195° |
| 2026-05-06 20:58 | 39.46405 | -7.15919 | 34880 ft | 392 kts | 195° |
| 2026-05-06 20:59 | 39.41056 | -7.17325 | 34881 ft | 392 kts | 195° |
| 2026-05-06 20:59 | 39.35703 | -7.18725 | 34866 ft | 392 kts | 195° |
| 2026-05-06 21:00 | 39.30347 | -7.20132 | 34871 ft | 392 kts | 195° |
| 2026-05-06 21:00 | 39.25002 | -7.21530 | 34873 ft | 392 kts | 195° |
| 2026-05-06 21:01 | 39.19646 | -7.22905 | 34881 ft | 393 kts | 194° |
| 2026-05-06 21:01 | 39.14247 | -7.24105 | 34877 ft | 394 kts | 193° |
| 2026-05-06 21:02 | 39.08839 | -7.25254 | 34861 ft | 395 kts | 193° |
| 2026-05-06 21:02 | 39.03421 | -7.26437 | 34864 ft | 395 kts | 193° |
| 2026-05-06 21:03 | 38.97998 | -7.27642 | 34869 ft | 396 kts | 193° |
| 2026-05-06 21:03 | 38.92570 | -7.28843 | 34871 ft | 396 kts | 193° |
| 2026-05-06 21:04 | 38.87139 | -7.30044 | 34865 ft | 396 kts | 193° |
| 2026-05-06 21:04 | 38.81741 | -7.31238 | 34873 ft | 396 kts | 193° |
| 2026-05-06 21:05 | 38.76299 | -7.32434 | 34878 ft | 397 kts | 193° |
| 2026-05-06 21:05 | 38.70858 | -7.33627 | 34799 ft | 399 kts | 193° |
| 2026-05-06 21:05 | 38.68127 | -7.34223 | 34508 ft | 397 kts | 193° |
| 2026-05-06 21:06 | 38.65403 | -7.34816 | 34260 ft | 397 kts | 193° |
| 2026-05-06 21:06 | 38.62676 | -7.35413 | 33978 ft | 398 kts | 193° |
| 2026-05-06 21:06 | 38.59947 | -7.36010 | 33441 ft | 397 kts | 193° |
| 2026-05-06 21:06 | 38.57227 | -7.36605 | 32946 ft | 396 kts | 193° |
| 2026-05-06 21:07 | 38.54512 | -7.37200 | 32447 ft | 395 kts | 193° |
| 2026-05-06 21:07 | 38.51818 | -7.37787 | 31949 ft | 391 kts | 193° |
| 2026-05-06 21:07 | 38.49145 | -7.38368 | 31461 ft | 387 kts | 193° |
| 2026-05-06 21:07 | 38.46504 | -7.38941 | 30981 ft | 383 kts | 193° |
| 2026-05-06 21:08 | 38.43893 | -7.39508 | 30509 ft | 379 kts | 193° |
| 2026-05-06 21:08 | 38.41307 | -7.40070 | 30015 ft | 375 kts | 193° |
| 2026-05-06 21:08 | 38.38750 | -7.40625 | 29529 ft | 371 kts | 193° |
| 2026-05-06 21:08 | 38.36236 | -7.41170 | 29178 ft | 362 kts | 193° |
| 2026-05-06 21:09 | 38.33767 | -7.41704 | 28631 ft | 358 kts | 193° |
| 2026-05-06 21:09 | 38.31335 | -7.42233 | 28199 ft | 353 kts | 193° |
| 2026-05-06 21:09 | 38.28921 | -7.42761 | 27767 ft | 351 kts | 193° |
| 2026-05-06 21:09 | 38.26522 | -7.43286 | 27338 ft | 349 kts | 193° |
| 2026-05-06 21:10 | 38.24135 | -7.43808 | 26918 ft | 347 kts | 193° |
| 2026-05-06 21:10 | 38.21760 | -7.44323 | 26520 ft | 345 kts | 193° |
| 2026-05-06 21:10 | 38.19401 | -7.44834 | 26119 ft | 344 kts | 193° |
| 2026-05-06 21:10 | 38.17049 | -7.45343 | 25725 ft | 342 kts | 193° |
| 2026-05-06 21:11 | 38.14711 | -7.45848 | 25340 ft | 340 kts | 192° |
| 2026-05-06 21:11 | 38.12378 | -7.46350 | 24952 ft | 339 kts | 192° |
| 2026-05-06 21:11 | 38.10060 | -7.46848 | 24568 ft | 337 kts | 192° |
| 2026-05-06 21:11 | 38.07749 | -7.47346 | 24187 ft | 336 kts | 192° |
| 2026-05-06 21:12 | 38.05449 | -7.47842 | 23800 ft | 335 kts | 192° |
| 2026-05-06 21:12 | 38.03160 | -7.48335 | 23403 ft | 333 kts | 192° |
| 2026-05-06 21:12 | 38.00879 | -7.48825 | 22979 ft | 331 kts | 192° |
| 2026-05-06 21:12 | 37.98613 | -7.49316 | 22589 ft | 330 kts | 192° |
| 2026-05-06 21:13 | 37.96358 | -7.49803 | 22204 ft | 328 kts | 192° |
| 2026-05-06 21:13 | 37.94113 | -7.50283 | 21806 ft | 326 kts | 192° |
| 2026-05-06 21:13 | 37.91884 | -7.50758 | 21423 ft | 324 kts | 192° |
| 2026-05-06 21:13 | 37.89670 | -7.51230 | 21034 ft | 322 kts | 192° |
| 2026-05-06 21:14 | 37.87469 | -7.51704 | 20642 ft | 320 kts | 192° |
| 2026-05-06 21:14 | 37.85282 | -7.52175 | 20251 ft | 318 kts | 192° |
| 2026-05-06 21:14 | 37.83105 | -7.52645 | 19860 ft | 316 kts | 192° |
| 2026-05-06 21:14 | 37.80940 | -7.53110 | 19464 ft | 315 kts | 192° |
| 2026-05-06 21:15 | 37.78787 | -7.53570 | 19084 ft | 313 kts | 192° |
| 2026-05-06 21:15 | 37.76648 | -7.54027 | 18701 ft | 311 kts | 192° |
| 2026-05-06 21:15 | 37.74505 | -7.54485 | 18203 ft | 318 kts | 190° |
| 2026-05-06 21:15 | 37.72258 | -7.54968 | 18078 ft | 333 kts | 191° |
| 2026-05-06 21:16 | 37.69991 | -7.55454 | 17800 ft | 324 kts | 192° |
| 2026-05-06 21:16 | 37.67825 | -7.55914 | 17477 ft | 308 kts | 192° |
| 2026-05-06 21:16 | 37.65736 | -7.56355 | 16781 ft | 302 kts | 192° |
| 2026-05-06 21:16 | 37.63665 | -7.56794 | 16355 ft | 302 kts | 191° |
| 2026-05-06 21:17 | 37.61597 | -7.57237 | 15985 ft | 301 kts | 192° |
| 2026-05-06 21:17 | 37.60230 | -7.57528 | 15746 ft | 300 kts | 191° |
| 2026-05-06 21:17 | 37.58173 | -7.57965 | 15394 ft | 299 kts | 191° |
| 2026-05-06 21:17 | 37.56128 | -7.58399 | 15027 ft | 298 kts | 192° |
| 2026-05-06 21:18 | 37.54101 | -7.58830 | 14768 ft | 289 kts | 191° |
| 2026-05-06 21:18 | 37.52192 | -7.59235 | 14494 ft | 271 kts | 192° |
| 2026-05-06 21:18 | 37.50374 | -7.59621 | 14219 ft | 260 kts | 191° |
| 2026-05-06 21:18 | 37.48602 | -7.59998 | 13733 ft | 257 kts | 191° |
| 2026-05-06 21:19 | 37.46839 | -7.60371 | 13207 ft | 257 kts | 191° |
| 2026-05-06 21:19 | 37.45082 | -7.60744 | 12800 ft | 253 kts | 191° |
| 2026-05-06 21:19 | 37.43340 | -7.61113 | 12543 ft | 253 kts | 192° |
| 2026-05-06 21:19 | 37.41603 | -7.61435 | 12288 ft | 253 kts | 187° |
| 2026-05-06 21:20 | 37.39843 | -7.61472 | 12056 ft | 253 kts | 182° |
| 2026-05-06 21:20 | 37.38088 | -7.61465 | 11819 ft | 251 kts | 182° |
| 2026-05-06 21:20 | 37.36343 | -7.61462 | 11519 ft | 252 kts | 181° |
| 2026-05-06 21:20 | 37.34584 | -7.61464 | 11205 ft | 252 kts | 182° |
| 2026-05-06 21:21 | 37.32834 | -7.61467 | 10873 ft | 251 kts | 181° |
| 2026-05-06 21:21 | 37.31083 | -7.61468 | 10551 ft | 253 kts | 180° |
| 2026-05-06 21:21 | 37.29331 | -7.61468 | 10268 ft | 250 kts | 180° |
| 2026-05-06 21:21 | 37.27603 | -7.61467 | 10189 ft | 249 kts | 180° |
| 2026-05-06 21:22 | 37.25862 | -7.61466 | 10088 ft | 251 kts | 180° |
| 2026-05-06 21:22 | 37.24118 | -7.61467 | 9966 ft | 250 kts | 181° |
| 2026-05-06 21:22 | 37.22353 | -7.61470 | 9434 ft | 256 kts | 180° |
| 2026-05-06 21:22 | 37.20600 | -7.61474 | 9180 ft | 248 kts | 180° |
| 2026-05-06 21:23 | 37.18882 | -7.61476 | 8649 ft | 246 kts | 179° |
| 2026-05-06 21:23 | 37.17175 | -7.61478 | 8109 ft | 245 kts | 179° |
| 2026-05-06 21:23 | 37.15467 | -7.61481 | 7546 ft | 245 kts | 179° |
| 2026-05-06 21:23 | 37.13764 | -7.61484 | 7064 ft | 244 kts | 179° |
| 2026-05-06 21:24 | 37.12064 | -7.61486 | 6605 ft | 244 kts | 179° |
| 2026-05-06 21:24 | 37.10365 | -7.61486 | 6133 ft | 243 kts | 179° |
| 2026-05-06 21:24 | 37.08667 | -7.61576 | 5659 ft | 247 kts | 187° |
| 2026-05-06 21:24 | 37.07024 | -7.62151 | 5293 ft | 245 kts | 201° |
| 2026-05-06 21:25 | 37.05470 | -7.63007 | 4962 ft | 240 kts | 203° |
| 2026-05-06 21:25 | 37.03948 | -7.63848 | 4908 ft | 235 kts | 202° |
| 2026-05-06 21:25 | 37.02510 | -7.64642 | 4847 ft | 219 kts | 203° |
| 2026-05-06 21:25 | 37.01131 | -7.65402 | 4762 ft | 215 kts | 203° |
| 2026-05-06 21:26 | 36.99779 | -7.66199 | 4663 ft | 215 kts | 211° |
| 2026-05-06 21:26 | 36.98664 | -7.67418 | 4386 ft | 210 kts | 232° |
| 2026-05-06 21:26 | 36.97996 | -7.68956 | 4185 ft | 195 kts | 253° |
| 2026-05-06 21:26 | 36.97778 | -7.70568 | 3973 ft | 183 kts | 273° |
| 2026-05-06 21:27 | 36.97930 | -7.72106 | 3768 ft | 175 kts | 283° |
| 2026-05-06 21:27 | 36.98145 | -7.73585 | 3529 ft | 171 kts | 284° |
| 2026-05-06 21:27 | 36.98353 | -7.75025 | 3307 ft | 166 kts | 285° |
| 2026-05-06 21:27 | 36.98558 | -7.76439 | 3098 ft | 165 kts | 286° |
| 2026-05-06 21:28 | 36.98760 | -7.77845 | 2873 ft | 163 kts | 285° |
| 2026-05-06 21:28 | 36.98958 | -7.79225 | 2661 ft | 159 kts | 286° |
| 2026-05-06 21:28 | 36.99149 | -7.80557 | 2456 ft | 152 kts | 285° |
| 2026-05-06 21:28 | 36.99335 | -7.81851 | 2266 ft | 151 kts | 287° |
| 2026-05-06 21:29 | 36.99517 | -7.83117 | 2054 ft | 149 kts | 287° |
| 2026-05-06 21:29 | 36.99700 | -7.84395 | 1851 ft | 145 kts | 287° |
| 2026-05-06 21:29 | 36.99868 | -7.85575 | 1662 ft | 136 kts | 288° |
| 2026-05-06 21:29 | 37.00034 | -7.86730 | 1479 ft | 135 kts | 288° |
| 2026-05-06 21:30 | 37.00199 | -7.87879 | 1302 ft | 133 kts | 287° |
| 2026-05-06 21:30 | 37.00361 | -7.89011 | 1126 ft | 132 kts | 285° |
| 2026-05-06 21:30 | 37.00522 | -7.90137 | 956 ft | 131 kts | 284° |
| 2026-05-06 21:30 | 37.00684 | -7.91265 | 805 ft | 132 kts | 281° |
| 2026-05-06 21:31 | 37.00852 | -7.92393 | 625 ft | 134 kts | 283° |
| 2026-05-06 21:31 | 37.01010 | -7.93530 | 446 ft | 132 kts | 283° |
| 2026-05-06 21:31 | 37.01168 | -7.94656 | 266 ft | 130 kts | 283° |
| 2026-05-06 21:31 | 37.01330 | -7.95778 | 99 ft | 131 kts | 282° |
| 2026-05-06 21:32 | 37.01489 | -7.96868 | 22 ft | 118 kts | 281° |
| 2026-05-06 21:32 | 37.01642 | -7.97936 | 21 ft | 30 kts | 286° |
| 2026-05-06 21:32 | 37.01728 | -7.98151 | 22 ft | 20 kts | 309° |
| 2026-05-06 21:33 | 37.01807 | -7.98230 | 21 ft | 12 kts | 347° |
| 2026-05-06 21:33 | 37.01853 | -7.98198 | 21 ft | 8 kts | 77° |
| 2026-05-06 21:33 | 37.01847 | -7.98134 | 21 ft | 7 kts | 98° |
| 2026-05-06 21:33 | 37.01840 | -7.98075 | 20 ft | 7 kts | 98° |
| 2026-05-06 21:34 | 37.01833 | -7.98019 | 20 ft | 6 kts | 99° |
| 2026-05-06 21:34 | 37.01826 | -7.97968 | 20 ft | 6 kts | 100° |
| 2026-05-06 21:34 | 37.01813 | -7.97885 | 22 ft | 15 kts | 101° |
| 2026-05-06 21:34 | 37.01791 | -7.97733 | 20 ft | 18 kts | 100° |
| 2026-05-06 21:35 | 37.01772 | -7.97603 | 20 ft | 12 kts | 100° |
| 2026-05-06 21:35 | 37.01759 | -7.97509 | 20 ft | 10 kts | 98° |
| 2026-05-06 21:35 | 37.01780 | -7.97431 | 21 ft | 9 kts | 47° |
| 2026-05-06 21:35 | 37.01834 | -7.97370 | 20 ft | 10 kts | 47° |
| 2026-05-06 21:36 | 37.01843 | -7.97289 | 23 ft | 9 kts | 97° |
| 2026-05-06 21:36 | 37.01833 | -7.97208 | 20 ft | 11 kts | 99° |
| 2026-05-06 21:36 | 37.01820 | -7.97117 | 20 ft | 10 kts | 100° |
| 2026-05-06 21:36 | 37.01809 | -7.97034 | 20 ft | 9 kts | 100° |
| 2026-05-06 21:37 | 37.01814 | -7.97006 | 20 ft | 2 kts | 50° |
| 2026-05-06 21:37 | 37.01831 | -7.96998 | 20 ft | 6 kts | 12° |
| 2026-05-06 21:37 | 37.01886 | -7.96985 | 21 ft | 8 kts | 10° |
| 2026-05-06 21:37 | 37.01924 | -7.96976 | 20 ft | 2 kts | 11° |
| 2026-05-06 21:38 | 37.01927 | -7.96976 | 20 ft | 0 kts | 11° |
| 2026-05-06 21:38 | 37.01934 | -7.96974 | 20 ft | 0 kts | 10° |